createdAt,value
2023-02-15T00:00:16.375Z,19.42
2023-02-15T00:01:23.088Z,19.92
2023-02-15T00:02:25.215Z,19.60
2023-02-15T00:03:28.750Z,19.20
2023-02-15T00:04:46.978Z,20.73
2023-02-15T00:06:09.706Z,20.85
2023-02-15T00:07:21.416Z,19.58
2023-02-15T00:08:24.767Z,20.35
2023-02-15T00:09:26.319Z,21.73
2023-02-15T00:10:28.782Z,21.00
2023-02-15T00:11:44.493Z,19.65
2023-02-15T00:12:47.540Z,20.00
2023-02-15T00:13:59.389Z,20.80
2023-02-15T00:15:13.922Z,19.20
2023-02-15T00:16:16.100Z,20.88
2023-02-15T00:17:18.646Z,20.65
2023-02-15T00:18:21.420Z,21.20
2023-02-15T00:19:24.128Z,20.30
2023-02-15T00:20:25.689Z,20.10
2023-02-15T00:21:28.173Z,20.38
2023-02-15T00:22:30.641Z,24.13
2023-02-15T00:23:32.571Z,20.10
2023-02-15T00:24:35.467Z,23.73
2023-02-15T00:25:37.048Z,20.33
2023-02-15T00:26:41.638Z,21.70
2023-02-15T00:27:43.213Z,19.73
2023-02-15T00:28:45.682Z,21.35
2023-02-15T00:29:48.505Z,21.08
2023-02-15T00:30:54.946Z,21.73
2023-02-15T00:31:56.652Z,21.10
2023-02-15T00:32:59.311Z,22.83
2023-02-15T00:34:03.375Z,21.17
2023-02-15T00:35:08.514Z,21.25
2023-02-15T00:36:21.331Z,20.50
2023-02-15T00:37:24.168Z,21.30
2023-02-15T00:38:27.193Z,19.20
2023-02-15T00:39:29.991Z,22.05
2023-02-15T00:40:31.554Z,20.60
2023-02-15T00:41:34.762Z,22.25
2023-02-15T00:42:36.516Z,20.30
2023-02-15T00:43:39.534Z,23.13
2023-02-15T00:44:46.467Z,21.33
2023-02-15T00:45:49.323Z,20.88
2023-02-15T00:46:52.188Z,22.35
2023-02-15T00:47:54.807Z,21.20
2023-02-15T00:48:56.414Z,22.73
2023-02-15T00:49:58.957Z,19.88
2023-02-15T00:51:01.574Z,21.23
2023-02-15T00:52:04.293Z,20.00
2023-02-15T00:53:05.976Z,21.95
2023-02-15T00:54:11.483Z,22.73
2023-02-15T00:55:13.102Z,19.42
2023-02-15T00:56:15.936Z,20.80
2023-02-15T00:57:20.085Z,21.35
2023-02-15T00:58:23.000Z,21.83
2023-02-15T00:59:24.787Z,20.88
2023-02-15T01:00:27.310Z,19.17
2023-02-15T01:01:31.065Z,21.17
2023-02-15T01:02:34.895Z,19.92
2023-02-15T01:03:36.823Z,20.25
2023-02-15T01:04:42.524Z,20.67
2023-02-15T01:05:44.843Z,21.15
2023-02-15T01:06:47.478Z,20.85
2023-02-15T01:07:49.444Z,21.92
2023-02-15T01:08:54.090Z,21.02
2023-02-15T01:09:55.838Z,20.88
2023-02-15T01:10:58.814Z,22.38
2023-02-15T01:12:00.477Z,21.30
2023-02-15T01:13:03.345Z,21.45
2023-02-15T01:14:06.277Z,21.73
2023-02-15T01:15:09.523Z,21.25
2023-02-15T01:16:11.171Z,21.00
2023-02-15T01:17:15.394Z,22.23
2023-02-15T01:18:18.731Z,21.35
2023-02-15T01:19:21.262Z,21.35
2023-02-15T01:20:25.123Z,21.35
2023-02-15T01:21:28.004Z,20.85
2023-02-15T01:22:29.606Z,19.83
2023-02-15T01:23:32.122Z,21.75
2023-02-15T01:24:33.683Z,24.58
2023-02-15T01:25:37.222Z,20.27
2023-02-15T01:26:48.816Z,21.17
2023-02-15T01:27:51.659Z,22.63
2023-02-15T01:29:04.202Z,21.45
2023-02-15T01:30:16.845Z,21.65
2023-02-15T01:31:21.803Z,23.08
2023-02-15T01:32:23.840Z,21.90
2023-02-15T01:33:28.959Z,21.90
2023-02-15T01:34:31.180Z,23.42
2023-02-15T01:35:34.014Z,21.80
2023-02-15T01:36:45.565Z,20.70
2023-02-15T01:37:48.507Z,21.67
2023-02-15T01:38:50.571Z,22.83
2023-02-15T01:39:54.415Z,21.73
2023-02-15T01:41:16.689Z,20.48
2023-02-15T01:42:23.825Z,21.95
2023-02-15T01:43:41.112Z,20.55
2023-02-15T01:44:52.601Z,22.98
2023-02-15T01:45:54.327Z,23.05
2023-02-15T01:46:57.330Z,21.75
2023-02-15T01:48:02.806Z,23.40
2023-02-15T01:49:12.420Z,22.05
2023-02-15T01:50:19.676Z,20.88
2023-02-15T01:51:25.639Z,22.55
2023-02-15T01:52:27.416Z,21.42
2023-02-15T01:53:37.802Z,21.63
2023-02-15T01:54:41.712Z,21.90
2023-02-15T01:55:49.709Z,22.73
2023-02-15T01:56:51.708Z,21.98
2023-02-15T01:57:54.840Z,20.58
2023-02-15T01:59:00.617Z,22.10
2023-02-15T02:00:08.275Z,20.67
2023-02-15T02:01:23.455Z,21.15
2023-02-15T02:02:30.156Z,21.88
2023-02-15T02:03:43.396Z,21.90
2023-02-15T02:04:50.960Z,22.08
2023-02-15T02:05:53.064Z,23.55
2023-02-15T02:06:56.604Z,23.38
2023-02-15T02:08:01.240Z,22.25
2023-02-15T02:09:04.458Z,22.75
2023-02-15T02:10:08.154Z,22.75
2023-02-15T02:11:14.651Z,21.25
2023-02-15T02:12:17.635Z,23.23
2023-02-15T02:13:20.200Z,22.20
2023-02-15T02:14:24.672Z,20.67
2023-02-15T02:15:37.066Z,20.95
2023-02-15T02:16:44.658Z,22.80
2023-02-15T02:18:05.186Z,22.20
2023-02-15T02:19:41.219Z,26.73
2023-02-15T02:21:10.003Z,21.75
2023-02-15T02:22:58.724Z,22.38
2023-02-15T02:24:25.038Z,24.27
2023-02-15T02:26:01.225Z,25.00
2023-02-15T02:27:23.055Z,24.20
2023-02-15T02:28:47.384Z,24.88
2023-02-15T02:30:29.303Z,22.60
2023-02-15T02:31:54.518Z,23.58
2023-02-15T02:33:33.076Z,24.75
2023-02-15T02:34:40.707Z,27.42
2023-02-15T02:35:51.314Z,23.73
2023-02-15T02:36:59.093Z,23.52
2023-02-15T02:38:10.105Z,23.73
2023-02-15T02:39:24.003Z,24.10
2023-02-15T02:40:35.606Z,21.75
2023-02-15T02:41:46.553Z,21.40
2023-02-15T02:42:59.928Z,23.67
2023-02-15T02:44:18.926Z,23.95
2023-02-15T02:45:35.952Z,22.85
2023-02-15T02:46:45.875Z,23.70
2023-02-15T02:47:51.217Z,22.73
2023-02-15T02:48:55.816Z,22.45
2023-02-15T02:50:00.932Z,23.10
2023-02-15T02:51:03.469Z,22.75
2023-02-15T02:52:08.284Z,25.10
2023-02-15T02:53:11.711Z,21.95
2023-02-15T02:54:13.380Z,24.50
2023-02-15T02:55:21.870Z,23.23
2023-02-15T02:56:28.806Z,21.80
2023-02-15T02:57:34.369Z,23.73
2023-02-15T02:58:45.420Z,22.20
2023-02-15T02:59:48.660Z,23.42
2023-02-15T03:00:55.320Z,22.42
2023-02-15T03:02:03.038Z,23.85
2023-02-15T03:03:10.921Z,23.73
2023-02-15T03:04:16.569Z,22.98
2023-02-15T03:05:23.368Z,23.90
2023-02-15T03:06:29.996Z,23.65
2023-02-15T03:07:33.570Z,22.90
2023-02-15T03:08:50.687Z,22.55
2023-02-15T03:09:55.583Z,24.25
2023-02-15T03:11:08.798Z,23.15
2023-02-15T03:12:13.678Z,21.80
2023-02-15T03:13:17.098Z,21.25
2023-02-15T03:14:20.460Z,21.38
2023-02-15T03:15:26.453Z,21.33
2023-02-15T03:16:28.891Z,22.67
2023-02-15T03:17:34.529Z,22.05
2023-02-15T03:18:39.863Z,21.15
2023-02-15T03:19:47.967Z,22.45
2023-02-15T03:20:51.924Z,23.85
2023-02-15T03:22:04.478Z,22.35
2023-02-15T03:23:13.134Z,21.38
2023-02-15T03:24:18.751Z,21.63
2023-02-15T03:25:23.609Z,21.70
2023-02-15T03:26:28.028Z,22.02
2023-02-15T03:27:36.540Z,22.13
2023-02-15T03:28:53.036Z,22.27
2023-02-15T03:29:58.465Z,22.60
2023-02-15T03:31:04.830Z,22.50
2023-02-15T03:32:17.971Z,22.23
2023-02-15T03:33:31.282Z,21.83
2023-02-15T03:34:35.078Z,23.00
2023-02-15T03:35:54.515Z,22.90
2023-02-15T03:37:01.095Z,22.85
2023-02-15T03:38:06.310Z,20.80
2023-02-15T03:39:19.675Z,23.98
2023-02-15T03:40:47.638Z,22.58
2023-02-15T03:42:00.192Z,21.45
2023-02-15T03:43:16.803Z,21.42
2023-02-15T03:44:32.594Z,21.42
2023-02-15T03:45:55.577Z,22.05
2023-02-15T03:47:05.981Z,23.05
2023-02-15T03:48:19.093Z,22.25
2023-02-15T03:49:29.822Z,23.35
2023-02-15T03:50:55.892Z,22.77
2023-02-15T03:52:02.397Z,22.70
2023-02-15T03:53:09.012Z,23.73
2023-02-15T03:54:14.555Z,21.30
2023-02-15T03:55:16.499Z,22.92
2023-02-15T03:56:19.207Z,20.98
2023-02-15T03:57:41.815Z,22.65
2023-02-15T03:59:02.135Z,23.58
2023-02-15T04:00:30.614Z,22.77
2023-02-15T04:03:25.588Z,22.20
2023-02-15T04:04:36.745Z,21.73
2023-02-15T04:05:47.318Z,23.27
2023-02-15T04:06:48.934Z,23.67
2023-02-15T04:07:51.515Z,21.83
2023-02-15T04:09:21.777Z,22.60
2023-02-15T04:10:49.231Z,23.42
2023-02-15T04:11:50.909Z,22.48
2023-02-15T04:12:53.470Z,21.50
2023-02-15T04:16:11.905Z,22.42
2023-02-15T04:17:13.437Z,23.35
2023-02-15T04:18:16.303Z,23.85
2023-02-15T04:19:36.746Z,22.45
2023-02-15T04:20:57.097Z,22.45
2023-02-15T04:22:21.245Z,23.42
2023-02-15T04:23:51.600Z,22.75
2023-02-15T04:25:13.262Z,23.10
2023-02-15T04:26:16.318Z,23.73
2023-02-15T04:27:17.930Z,22.20
2023-02-15T04:28:20.464Z,22.77
2023-02-15T04:29:23.473Z,22.65
2023-02-15T04:30:27.500Z,23.27
2023-02-15T04:31:29.216Z,22.85
2023-02-15T04:32:31.709Z,23.05
2023-02-15T04:33:36.715Z,21.35
2023-02-15T04:34:38.595Z,23.25
2023-02-15T04:35:41.990Z,20.55
2023-02-15T04:36:43.744Z,20.95
2023-02-15T04:37:46.667Z,21.48
2023-02-15T04:38:48.249Z,21.67
2023-02-15T04:39:51.508Z,21.83
2023-02-15T04:40:54.294Z,21.58
2023-02-15T04:41:55.827Z,21.13
2023-02-15T04:42:58.286Z,22.23
2023-02-15T04:44:01.492Z,19.73
2023-02-15T04:45:14.373Z,19.85
2023-02-15T04:46:26.152Z,20.88
2023-02-15T04:47:37.584Z,23.15
2023-02-15T04:48:40.527Z,20.45
2023-02-15T04:49:43.330Z,20.50
2023-02-15T04:50:45.200Z,21.65
2023-02-15T04:51:47.718Z,20.63
2023-02-15T04:52:49.276Z,21.15
2023-02-15T04:53:53.340Z,19.45
2023-02-15T04:54:54.908Z,21.05
2023-02-15T04:55:57.394Z,19.15
2023-02-15T04:57:03.625Z,22.73
2023-02-15T04:58:06.225Z,19.40
2023-02-15T04:59:17.960Z,22.15
2023-02-15T05:00:21.091Z,20.38
2023-02-15T05:01:27.821Z,20.90
2023-02-15T05:02:30.342Z,19.55
2023-02-15T05:03:31.898Z,19.27
2023-02-15T05:04:35.781Z,20.95
2023-02-15T05:05:37.335Z,21.15
2023-02-15T05:06:39.829Z,22.23
2023-02-15T05:07:41.452Z,19.80
2023-02-15T05:08:44.025Z,23.38
2023-02-15T05:09:45.596Z,20.88
2023-02-15T05:10:49.698Z,20.70
2023-02-15T05:11:51.242Z,20.30
2023-02-15T05:12:53.705Z,20.83
2023-02-15T05:13:55.262Z,20.40
2023-02-15T05:14:57.753Z,20.77
2023-02-15T05:15:59.568Z,19.77
2023-02-15T05:17:04.098Z,22.17
2023-02-15T05:18:07.231Z,21.05
2023-02-15T05:19:10.876Z,20.85
2023-02-15T05:20:23.855Z,21.08
2023-02-15T05:21:26.641Z,19.70
2023-02-15T05:22:28.429Z,22.20
2023-02-15T05:23:31.140Z,20.95
2023-02-15T05:24:51.229Z,21.23
2023-02-15T05:26:11.511Z,20.50
2023-02-15T05:27:32.049Z,21.30
2023-02-15T05:28:34.859Z,21.30
2023-02-15T05:29:36.431Z,21.52
2023-02-15T05:30:40.674Z,20.27
2023-02-15T05:31:48.153Z,22.48
2023-02-15T05:32:51.538Z,21.25
2023-02-15T05:34:00.107Z,19.42
2023-02-15T05:35:06.310Z,28.23
2023-02-15T05:36:20.201Z,21.05
2023-02-15T05:37:22.020Z,21.83
2023-02-15T05:38:24.487Z,19.83
2023-02-15T05:39:25.976Z,19.50
2023-02-15T05:40:28.644Z,19.83
2023-02-15T05:41:30.174Z,21.45
2023-02-15T05:42:32.657Z,20.67
2023-02-15T05:43:34.773Z,22.08
2023-02-15T05:44:38.886Z,21.83
2023-02-15T05:45:40.685Z,20.80
2023-02-15T05:46:43.269Z,19.50
2023-02-15T05:47:49.681Z,20.85
2023-02-15T05:48:52.225Z,20.90
2023-02-15T05:49:53.811Z,22.25
2023-02-15T05:51:00.500Z,20.42
2023-02-15T05:52:03.845Z,19.02
2023-02-15T05:53:06.361Z,19.67
2023-02-15T05:54:07.906Z,21.45
2023-02-15T05:55:10.628Z,19.58
2023-02-15T05:56:22.184Z,20.88
2023-02-15T05:57:24.737Z,22.17
2023-02-15T05:58:27.074Z,20.88
2023-02-15T05:59:29.798Z,20.95
2023-02-15T06:00:31.483Z,19.65
2023-02-15T06:01:35.092Z,21.02
2023-02-15T06:02:37.698Z,20.73
2023-02-15T06:03:40.397Z,19.98
2023-02-15T06:04:46.385Z,20.95
2023-02-15T06:05:48.895Z,20.48
2023-02-15T06:06:50.473Z,23.33
2023-02-15T06:08:01.214Z,20.70
2023-02-15T06:09:14.730Z,20.75
2023-02-15T06:10:18.104Z,20.88
2023-02-15T06:11:20.298Z,20.40
2023-02-15T06:12:22.898Z,21.17
2023-02-15T06:13:24.490Z,18.48
2023-02-15T06:14:27.318Z,20.10
2023-02-15T06:15:28.892Z,19.75
2023-02-15T06:16:31.579Z,19.58
2023-02-15T06:17:34.063Z,20.10
2023-02-15T06:18:35.748Z,20.80
2023-02-15T06:19:38.311Z,19.48
2023-02-15T06:20:39.971Z,20.55
2023-02-15T06:21:43.196Z,20.65
2023-02-15T06:22:45.742Z,21.35
2023-02-15T06:23:48.742Z,22.15
2023-02-15T06:25:01.262Z,20.42
2023-02-15T06:26:04.033Z,20.10
2023-02-15T06:27:06.790Z,20.02
2023-02-15T06:28:08.521Z,19.23
2023-02-15T06:29:11.426Z,19.48
2023-02-15T06:30:15.192Z,22.05
2023-02-15T06:31:17.092Z,19.65
2023-02-15T06:32:19.674Z,20.50
2023-02-15T06:33:24.204Z,20.63
2023-02-15T06:34:26.697Z,20.08
2023-02-15T06:35:28.580Z,19.98
2023-02-15T06:36:41.224Z,21.33
2023-02-15T06:37:47.334Z,18.98
2023-02-15T06:38:50.600Z,19.92
2023-02-15T06:40:04.003Z,20.30
2023-02-15T06:41:05.859Z,19.13
2023-02-15T06:42:08.447Z,18.45
2023-02-15T06:43:10.017Z,19.23
2023-02-15T06:44:12.547Z,18.73
2023-02-15T06:45:14.336Z,19.40
2023-02-15T06:46:16.952Z,18.75
2023-02-15T06:47:18.502Z,20.85
2023-02-15T06:48:21.019Z,19.17
2023-02-15T06:49:23.211Z,17.63
2023-02-15T06:50:35.935Z,19.30
2023-02-15T06:51:45.807Z,19.40
2023-02-15T06:52:48.438Z,20.13
2023-02-15T06:53:51.460Z,19.30
2023-02-15T06:54:54.125Z,21.02
2023-02-15T06:56:01.745Z,19.40
2023-02-15T06:57:04.564Z,21.80
2023-02-15T06:58:06.054Z,20.38
2023-02-15T06:59:08.537Z,19.50
2023-02-15T07:00:11.379Z,20.20
2023-02-15T07:01:25.412Z,21.40
2023-02-15T07:02:29.800Z,21.25
2023-02-15T07:03:32.976Z,19.55
2023-02-15T07:04:36.375Z,19.75
2023-02-15T07:05:49.657Z,19.70
2023-02-15T07:06:53.995Z,19.02
2023-02-15T07:07:55.906Z,19.90
2023-02-15T07:08:59.746Z,17.83
2023-02-15T07:10:02.373Z,19.35
2023-02-15T07:11:19.187Z,19.20
2023-02-15T07:12:39.076Z,20.15
2023-02-15T07:13:43.474Z,19.42
2023-02-15T07:14:45.954Z,19.42
2023-02-15T07:15:49.712Z,17.88
2023-02-15T07:16:51.232Z,17.90
2023-02-15T07:17:53.775Z,19.10
2023-02-15T07:18:55.383Z,19.02
2023-02-15T07:19:58.165Z,18.63
2023-02-15T07:20:59.771Z,19.45
2023-02-15T07:22:02.947Z,19.45
2023-02-15T07:23:14.481Z,19.77
2023-02-15T07:24:18.568Z,20.55
2023-02-15T07:25:21.384Z,20.85
2023-02-15T07:26:22.921Z,21.02
2023-02-15T07:27:25.767Z,17.77
2023-02-15T07:28:28.283Z,18.95
2023-02-15T07:29:30.892Z,20.80
2023-02-15T07:30:33.509Z,19.83
2023-02-15T07:31:35.822Z,19.15
2023-02-15T07:32:58.767Z,18.00
2023-02-15T07:34:00.319Z,19.17
2023-02-15T07:35:03.085Z,20.00
2023-02-15T07:36:05.608Z,19.02
2023-02-15T07:37:08.359Z,20.10
2023-02-15T07:38:09.889Z,19.67
2023-02-15T07:39:13.299Z,19.45
2023-02-15T07:40:17.330Z,19.17
2023-02-15T07:41:19.924Z,19.33
2023-02-15T07:42:23.079Z,18.98
2023-02-15T07:43:38.437Z,20.13
2023-02-15T07:44:51.172Z,19.05
2023-02-15T07:45:53.056Z,19.90
2023-02-15T07:46:55.673Z,18.77
2023-02-15T07:47:57.206Z,18.63
2023-02-15T07:49:00.163Z,18.40
2023-02-15T07:50:02.938Z,18.15
2023-02-15T07:51:07.901Z,18.70
2023-02-15T07:52:10.885Z,20.92
2023-02-15T07:53:13.408Z,19.00
2023-02-15T07:54:14.923Z,19.42
2023-02-15T07:55:19.500Z,15.75
2023-02-15T07:56:22.054Z,18.33
2023-02-15T07:57:24.164Z,18.35
2023-02-15T07:58:47.761Z,18.90
2023-02-15T07:59:57.017Z,17.27
2023-02-15T08:01:09.315Z,18.60
2023-02-15T08:02:21.804Z,20.48
2023-02-15T08:03:25.554Z,18.15
2023-02-15T08:04:28.282Z,18.38
2023-02-15T08:05:29.787Z,17.65
2023-02-15T08:06:34.409Z,16.63
2023-02-15T08:07:36.932Z,18.48
2023-02-15T08:08:38.621Z,18.15
2023-02-15T08:09:41.160Z,16.90
2023-02-15T08:11:02.556Z,15.60
2023-02-15T08:12:05.810Z,17.83
2023-02-15T08:13:07.760Z,16.52
2023-02-15T08:14:11.851Z,16.73
2023-02-15T08:15:13.607Z,18.60
2023-02-15T08:16:16.424Z,17.15
2023-02-15T08:17:19.273Z,14.98
2023-02-15T08:18:28.641Z,16.50
2023-02-15T08:19:33.364Z,15.85
2023-02-15T08:20:34.873Z,16.70
2023-02-15T08:21:39.251Z,17.33
2023-02-15T08:22:40.877Z,15.60
2023-02-15T08:23:43.449Z,16.65
2023-02-15T08:24:46.069Z,17.42
2023-02-15T08:25:48.909Z,16.27
2023-02-15T08:26:52.579Z,17.45
2023-02-15T08:27:54.152Z,16.30
2023-02-15T08:29:08.823Z,16.23
2023-02-15T08:30:21.755Z,15.63
2023-02-15T08:31:25.070Z,16.00
2023-02-15T08:32:27.658Z,16.50
2023-02-15T08:33:29.316Z,15.98
2023-02-15T08:34:34.572Z,16.20
2023-02-15T08:35:36.095Z,16.13
2023-02-15T08:36:39.100Z,16.60
2023-02-15T08:37:40.631Z,16.48
2023-02-15T08:38:44.425Z,16.75
2023-02-15T08:39:46.944Z,16.65
2023-02-15T08:40:50.840Z,17.73
2023-02-15T08:41:53.359Z,15.73
2023-02-15T08:43:02.185Z,16.17
2023-02-15T08:44:07.570Z,16.23
2023-02-15T08:45:09.643Z,15.13
2023-02-15T08:46:23.462Z,15.18
2023-02-15T08:47:26.922Z,16.10
2023-02-15T08:48:28.939Z,15.70
2023-02-15T08:49:31.866Z,15.70
2023-02-15T08:50:33.383Z,16.88
2023-02-15T08:51:38.768Z,15.40
2023-02-15T08:52:41.239Z,16.48
2023-02-15T08:53:46.487Z,16.02
2023-02-15T08:54:49.120Z,16.08
2023-02-15T08:55:57.925Z,16.02
2023-02-15T08:57:01.743Z,16.30
2023-02-15T08:58:12.201Z,16.25
2023-02-15T08:59:17.388Z,15.68
2023-02-15T09:00:19.940Z,16.92
2023-02-15T09:01:29.578Z,15.18
2023-02-15T09:02:31.206Z,16.20
2023-02-15T09:03:33.904Z,15.90
2023-02-15T09:04:36.699Z,16.02
2023-02-15T09:05:38.280Z,16.88
2023-02-15T09:06:49.337Z,17.30
2023-02-15T09:07:51.135Z,16.95
2023-02-15T09:08:54.563Z,17.45
2023-02-15T09:09:57.058Z,15.90
2023-02-15T09:11:09.539Z,16.10
2023-02-15T09:12:12.028Z,17.10
2023-02-15T09:13:14.135Z,15.93
2023-02-15T09:14:18.713Z,18.08
2023-02-15T09:15:20.494Z,18.23
2023-02-15T09:16:24.445Z,17.48
2023-02-15T09:17:26.473Z,16.73
2023-02-15T09:18:40.758Z,16.85
2023-02-15T09:19:53.244Z,16.23
2023-02-15T09:20:56.861Z,15.90
2023-02-15T09:21:59.479Z,16.55
2023-02-15T09:23:01.048Z,17.20
2023-02-15T09:24:06.509Z,17.38
2023-02-15T09:25:08.554Z,16.58
2023-02-15T09:26:14.228Z,16.40
2023-02-15T09:27:17.304Z,16.38
2023-02-15T09:28:18.936Z,15.73
2023-02-15T09:29:21.746Z,15.25
2023-02-15T09:30:23.422Z,17.77
2023-02-15T09:31:28.187Z,15.80
2023-02-15T09:32:31.027Z,17.65
2023-02-15T09:33:46.639Z,15.35
2023-02-15T09:34:49.962Z,15.65
2023-02-15T09:35:52.492Z,17.42
2023-02-15T09:36:55.066Z,16.40
2023-02-15T09:37:56.573Z,17.35
2023-02-15T09:39:40.924Z,15.95
2023-02-15T09:40:55.059Z,15.88
2023-02-15T09:42:13.675Z,17.13
2023-02-15T09:43:29.475Z,16.65
2023-02-15T09:44:48.665Z,15.38
2023-02-15T09:46:13.253Z,15.85
2023-02-15T09:47:43.835Z,15.30
2023-02-15T09:48:52.725Z,16.80
2023-02-15T09:50:05.122Z,15.02
2023-02-15T09:51:24.962Z,14.15
2023-02-15T09:52:42.400Z,12.65
2023-02-15T09:54:03.325Z,15.30
2023-02-15T09:55:23.257Z,13.30
2023-02-15T09:56:40.408Z,15.25
2023-02-15T09:57:51.791Z,14.25
2023-02-15T09:59:04.683Z,13.60
2023-02-15T10:00:18.499Z,13.65
2023-02-15T10:01:41.268Z,14.52
2023-02-15T10:03:05.296Z,12.98
2023-02-15T10:04:32.776Z,13.68
2023-02-15T10:05:45.584Z,14.35
2023-02-15T10:07:02.454Z,13.20
2023-02-15T10:08:38.758Z,14.20
2023-02-15T10:09:55.295Z,13.50
2023-02-15T10:11:21.625Z,13.85
2023-02-15T10:12:39.197Z,11.98
2023-02-15T10:13:50.753Z,14.02
2023-02-15T10:15:26.041Z,14.50
2023-02-15T10:16:36.833Z,13.68
2023-02-15T10:17:55.083Z,14.27
2023-02-15T10:19:04.473Z,13.23
2023-02-15T10:20:25.617Z,13.98
2023-02-15T10:21:47.585Z,13.80
2023-02-15T10:23:10.230Z,14.23
2023-02-15T10:24:31.023Z,14.45
2023-02-15T10:25:44.081Z,13.90
2023-02-15T10:26:48.710Z,14.75
2023-02-15T10:27:51.958Z,15.02
2023-02-15T10:29:02.849Z,13.82
2023-02-15T10:30:11.944Z,14.57
2023-02-15T10:31:24.327Z,13.02
2023-02-15T10:32:30.189Z,13.50
2023-02-15T10:33:41.673Z,13.73
2023-02-15T10:34:52.375Z,14.57
2023-02-15T10:36:07.332Z,13.98
2023-02-15T10:37:37.698Z,12.85
2023-02-15T10:38:44.616Z,13.15
2023-02-15T10:39:57.679Z,13.35
2023-02-15T10:41:11.027Z,15.20
2023-02-15T10:42:22.681Z,14.93
2023-02-15T10:43:43.231Z,14.23
2023-02-15T10:45:05.097Z,14.88
2023-02-15T10:46:19.582Z,14.55
2023-02-15T10:47:57.539Z,13.30
2023-02-15T10:49:22.602Z,13.05
2023-02-15T10:50:42.402Z,14.55
2023-02-15T10:52:00.354Z,14.65
2023-02-15T10:53:27.924Z,14.27
2023-02-15T10:54:38.627Z,13.93
2023-02-15T10:55:53.751Z,14.38
2023-02-15T10:57:04.674Z,14.40
2023-02-15T10:58:18.371Z,14.25
2023-02-15T10:59:40.640Z,14.32
2023-02-15T11:00:48.482Z,14.45
2023-02-15T11:01:56.493Z,13.65
2023-02-15T11:03:18.959Z,13.50
2023-02-15T11:04:43.916Z,13.23
2023-02-15T11:05:56.490Z,13.30
2023-02-15T11:07:04.072Z,13.27
2023-02-15T11:08:10.290Z,13.15
2023-02-15T11:09:16.433Z,14.60
2023-02-15T11:10:28.947Z,14.02
2023-02-15T11:11:36.147Z,13.05
2023-02-15T11:12:47.372Z,14.45
2023-02-15T11:13:53.808Z,14.63
2023-02-15T11:15:02.518Z,13.98
2023-02-15T11:16:10.370Z,15.70
2023-02-15T11:17:17.398Z,14.10
2023-02-15T11:18:28.232Z,14.40
2023-02-15T11:19:35.392Z,14.10
2023-02-15T11:20:40.939Z,13.80
2023-02-15T11:21:47.509Z,16.13
2023-02-15T11:22:52.053Z,13.57
2023-02-15T11:23:56.290Z,14.07
2023-02-15T11:25:00.675Z,16.52
2023-02-15T11:26:06.921Z,15.07
2023-02-15T11:27:21.764Z,15.60
2023-02-15T11:28:30.782Z,13.88
2023-02-15T11:29:37.451Z,14.02
2023-02-15T11:30:45.917Z,14.70
2023-02-15T11:31:52.994Z,14.10
2023-02-15T11:32:59.510Z,15.60
2023-02-15T11:34:08.161Z,15.23
2023-02-15T11:35:22.518Z,15.07
2023-02-15T11:36:29.324Z,13.20
2023-02-15T11:37:36.727Z,15.20
2023-02-15T11:38:44.228Z,15.10
2023-02-15T11:39:55.982Z,14.80
2023-02-15T11:41:04.815Z,15.52
2023-02-15T11:42:13.923Z,14.00
2023-02-15T11:43:21.304Z,13.50
2023-02-15T11:44:27.942Z,13.48
2023-02-15T11:45:31.511Z,13.57
2023-02-15T11:46:34.551Z,14.15
2023-02-15T11:47:37.504Z,15.48
2023-02-15T11:48:40.949Z,14.80
2023-02-15T11:49:42.515Z,14.98
2023-02-15T11:50:46.518Z,15.32
2023-02-15T11:51:48.384Z,14.35
2023-02-15T11:52:51.687Z,14.70
2023-02-15T11:53:54.510Z,12.65
2023-02-15T11:54:56.127Z,14.63
2023-02-15T11:55:58.800Z,13.98
2023-02-15T11:57:05.308Z,14.98
2023-02-15T11:58:27.072Z,14.27
2023-02-15T11:59:34.327Z,14.13
2023-02-15T12:00:40.409Z,15.13
2023-02-15T12:01:46.677Z,14.10
2023-02-15T12:02:55.430Z,14.07
2023-02-15T12:04:01.022Z,13.90
2023-02-15T12:05:09.490Z,13.70
2023-02-15T12:06:18.044Z,13.32
2023-02-15T12:07:26.599Z,14.32
2023-02-15T12:08:40.069Z,14.65
2023-02-15T12:09:47.814Z,14.40
2023-02-15T12:11:00.543Z,14.55
2023-02-15T12:12:24.609Z,15.02
2023-02-15T12:13:27.033Z,14.40
2023-02-15T12:14:49.205Z,13.85
2023-02-15T12:15:54.738Z,13.63
2023-02-15T12:16:58.459Z,14.63
2023-02-15T12:18:01.390Z,13.63
2023-02-15T12:19:04.390Z,13.20
2023-02-15T12:20:22.502Z,13.55
2023-02-15T12:21:30.850Z,13.32
2023-02-15T12:22:37.053Z,13.65
2023-02-15T12:23:45.430Z,14.68
2023-02-15T12:24:49.524Z,16.90
2023-02-15T12:25:54.435Z,14.65
2023-02-15T12:27:00.941Z,13.50
2023-02-15T12:28:27.582Z,14.32
2023-02-15T12:29:36.787Z,16.00
2023-02-15T12:30:39.835Z,13.90
2023-02-15T12:31:45.664Z,14.15
2023-02-15T12:32:52.545Z,12.82
2023-02-15T12:33:59.095Z,14.15
2023-02-15T12:35:09.291Z,13.68
2023-02-15T12:36:14.666Z,13.35
2023-02-15T12:37:20.138Z,12.60
2023-02-15T12:38:26.247Z,13.10
2023-02-15T12:39:29.142Z,13.65
2023-02-15T12:40:32.471Z,13.95
2023-02-15T12:41:35.226Z,13.07
2023-02-15T12:42:45.375Z,13.18
2023-02-15T12:43:47.958Z,13.15
2023-02-15T12:45:00.916Z,14.13
2023-02-15T12:46:22.861Z,13.93
2023-02-15T12:47:30.451Z,12.88
2023-02-15T12:48:40.737Z,13.98
2023-02-15T12:49:48.978Z,12.63
2023-02-15T12:50:56.222Z,12.68
2023-02-15T12:52:00.559Z,14.10
2023-02-15T12:53:09.875Z,14.98
2023-02-15T12:54:41.043Z,13.20
2023-02-15T12:55:52.717Z,12.82
2023-02-15T12:56:55.238Z,14.98
2023-02-15T12:58:08.062Z,14.20
2023-02-15T12:59:15.516Z,11.82
2023-02-15T13:00:32.617Z,13.23
2023-02-15T13:01:35.756Z,13.70
2023-02-15T13:02:44.382Z,13.30
2023-02-15T13:04:16.682Z,13.60
2023-02-15T13:05:27.074Z,14.80
2023-02-15T13:06:34.062Z,12.10
2023-02-15T13:07:36.609Z,14.20
2023-02-15T13:08:48.079Z,13.27
2023-02-15T13:09:51.777Z,12.98
2023-02-15T13:10:56.978Z,13.05
2023-02-15T13:12:12.515Z,12.85
2023-02-15T13:13:22.739Z,13.20
2023-02-15T13:14:33.122Z,12.38
2023-02-15T13:15:39.233Z,12.80
2023-02-15T13:16:42.819Z,14.95
2023-02-15T13:17:45.414Z,14.43
2023-02-15T13:18:52.370Z,13.65
2023-02-15T13:19:55.299Z,13.60
2023-02-15T13:21:14.813Z,13.77
2023-02-15T13:22:24.383Z,13.43
2023-02-15T13:23:30.702Z,12.48
2023-02-15T13:24:36.858Z,12.13
2023-02-15T13:25:51.059Z,13.60
2023-02-15T13:27:12.906Z,13.30
2023-02-15T13:28:20.054Z,13.75
2023-02-15T13:29:25.139Z,14.35
2023-02-15T13:30:33.504Z,14.02
2023-02-15T13:31:37.171Z,14.05
2023-02-15T13:32:43.934Z,13.68
2023-02-15T13:33:50.327Z,12.40
2023-02-15T13:34:55.957Z,14.20
2023-02-15T13:36:08.869Z,14.57
2023-02-15T13:37:18.437Z,11.38
2023-02-15T13:38:51.349Z,12.85
2023-02-15T13:40:03.578Z,12.43
2023-02-15T13:41:11.446Z,13.15
2023-02-15T13:42:23.055Z,11.95
2023-02-15T13:43:37.397Z,13.68
2023-02-15T13:45:04.489Z,13.10
2023-02-15T13:46:23.579Z,11.82
2023-02-15T13:47:33.551Z,11.88
2023-02-15T13:48:51.007Z,12.93
2023-02-15T13:50:12.589Z,13.18
2023-02-15T13:51:22.965Z,12.27
2023-02-15T13:52:29.333Z,12.25
2023-02-15T13:54:02.746Z,13.15
2023-02-15T13:55:31.311Z,11.45
2023-02-15T13:56:47.812Z,11.48
2023-02-15T13:58:08.677Z,13.00
2023-02-15T13:59:33.373Z,12.85
2023-02-15T14:00:46.427Z,13.30
2023-02-15T14:01:57.618Z,12.27
2023-02-15T14:03:42.347Z,13.07
2023-02-15T14:05:00.250Z,12.45
2023-02-15T14:06:17.131Z,11.80
2023-02-15T14:07:31.033Z,12.27
2023-02-15T14:08:54.204Z,12.00
2023-02-15T14:10:11.425Z,10.85
2023-02-15T14:11:22.400Z,12.30
2023-02-15T14:12:43.227Z,12.45
2023-02-15T14:13:59.700Z,12.10
2023-02-15T14:15:27.903Z,12.40
2023-02-15T14:16:41.237Z,13.32
2023-02-15T14:17:52.302Z,13.52
2023-02-15T14:19:00.603Z,11.23
2023-02-15T14:20:10.546Z,11.45
2023-02-15T14:21:19.870Z,11.82
2023-02-15T14:22:32.589Z,12.95
2023-02-15T14:23:50.987Z,12.27
2023-02-15T14:25:09.326Z,11.50
2023-02-15T14:26:20.413Z,11.63
2023-02-15T14:27:30.092Z,12.23
2023-02-15T14:28:40.271Z,12.07
2023-02-15T14:29:49.949Z,12.35
2023-02-15T14:30:53.593Z,12.02
2023-02-15T14:31:59.530Z,12.65
2023-02-15T14:33:07.578Z,13.07
2023-02-15T14:34:20.959Z,13.30
2023-02-15T14:35:27.945Z,12.88
2023-02-15T14:36:32.340Z,14.35
2023-02-15T14:37:45.098Z,12.85
2023-02-15T14:39:35.569Z,12.95
2023-02-15T14:41:04.117Z,11.98
2023-02-15T14:42:15.210Z,11.73